createdAt,value
2023-01-21T00:00:31.509Z,2.60
2023-01-21T00:01:45.154Z,2.33
2023-01-21T00:02:56.760Z,3.55
2023-01-21T00:04:08.192Z,1.70
2023-01-21T00:05:19.658Z,6.45
2023-01-21T00:06:31.089Z,12.25
2023-01-21T00:07:42.550Z,13.57
2023-01-21T00:08:54.009Z,9.98
2023-01-21T00:10:05.705Z,9.63
2023-01-21T00:11:17.205Z,9.07
2023-01-21T00:12:28.698Z,11.35
2023-01-21T00:13:40.440Z,5.97
2023-01-21T00:14:51.910Z,5.25
2023-01-21T00:16:06.455Z,6.97
2023-01-21T00:17:17.916Z,7.45
2023-01-21T00:18:30.166Z,14.10
2023-01-21T00:19:41.812Z,8.82
2023-01-21T00:20:53.270Z,13.90
2023-01-21T00:22:04.765Z,9.20
2023-01-21T00:23:16.241Z,10.45
2023-01-21T00:24:27.730Z,6.93
2023-01-21T00:25:39.296Z,13.88
2023-01-21T00:26:51.087Z,20.60
2023-01-21T00:28:02.656Z,24.55
2023-01-21T00:29:14.151Z,11.60
2023-01-21T00:30:25.670Z,11.52
2023-01-21T00:31:37.214Z,5.32
2023-01-21T00:32:48.724Z,6.97
2023-01-21T00:34:00.242Z,9.70
2023-01-21T00:35:11.752Z,7.03
2023-01-21T00:36:24.828Z,5.32
2023-01-21T00:37:36.311Z,9.48
2023-01-21T00:38:50.055Z,10.60
2023-01-21T00:40:01.626Z,7.43
2023-01-21T00:41:13.389Z,8.38
2023-01-21T00:42:24.875Z,7.82
2023-01-21T00:43:36.672Z,10.52
2023-01-21T00:44:48.147Z,11.90
2023-01-21T00:45:59.717Z,8.27
2023-01-21T00:47:11.294Z,20.23
2023-01-21T00:48:22.967Z,9.70
2023-01-21T00:49:36.911Z,9.88
2023-01-21T00:50:48.524Z,8.32
2023-01-21T00:52:00.080Z,14.15
2023-01-21T00:53:11.563Z,16.67
2023-01-21T00:54:23.059Z,11.20
2023-01-21T00:55:34.540Z,11.32
2023-01-21T00:56:45.990Z,24.85
2023-01-21T00:57:57.758Z,12.65
2023-01-21T00:59:09.423Z,12.07
2023-01-21T01:00:21.149Z,21.80
2023-01-21T01:01:37.263Z,26.42
2023-01-21T01:02:48.961Z,23.65
2023-01-21T01:04:00.450Z,29.75
2023-01-21T01:05:12.470Z,12.60
2023-01-21T01:06:24.343Z,11.93
2023-01-21T01:07:36.124Z,18.30
2023-01-21T01:08:49.585Z,9.98
2023-01-21T01:10:01.018Z,24.70
2023-01-21T01:11:13.242Z,15.02
2023-01-21T01:12:24.719Z,19.05
2023-01-21T01:13:36.556Z,25.13
2023-01-21T01:14:48.049Z,13.52
2023-01-21T01:16:00.248Z,14.85
2023-01-21T01:17:11.737Z,19.52
2023-01-21T01:18:24.119Z,18.25
2023-01-21T01:19:35.568Z,19.67
2023-01-21T01:20:47.410Z,24.40
2023-01-21T01:21:58.969Z,18.25
2023-01-21T01:23:10.671Z,29.90
2023-01-21T01:24:22.233Z,18.13
2023-01-21T01:25:34.709Z,29.35
2023-01-21T01:26:46.176Z,12.75
2023-01-21T01:27:57.641Z,17.05
2023-01-21T01:29:13.121Z,20.40
2023-01-21T01:30:24.646Z,22.45
2023-01-21T01:31:36.200Z,11.43
2023-01-21T01:32:47.719Z,31.45
2023-01-21T01:33:59.387Z,24.13
2023-01-21T01:35:11.110Z,21.60
2023-01-21T01:36:25.324Z,30.17
2023-01-21T01:37:36.817Z,33.17
2023-01-21T01:38:48.273Z,36.80
2023-01-21T01:40:00.722Z,24.70
2023-01-21T01:41:17.054Z,32.63
2023-01-21T01:42:28.583Z,38.70
2023-01-21T01:43:52.517Z,22.60
2023-01-21T01:45:07.049Z,35.58
2023-01-21T01:46:19.194Z,22.77
2023-01-21T01:47:39.371Z,38.88
2023-01-21T01:49:11.149Z,24.02
2023-01-21T01:50:24.950Z,26.17
2023-01-21T01:51:40.657Z,23.00
2023-01-21T01:52:53.648Z,12.18
2023-01-21T01:54:05.912Z,19.45
2023-01-21T01:55:17.444Z,19.20
2023-01-21T01:56:29.404Z,6.65
2023-01-21T01:57:43.143Z,8.18
2023-01-21T01:58:55.865Z,7.50
2023-01-21T02:00:08.788Z,9.30
2023-01-21T02:01:20.362Z,22.00
2023-01-21T02:02:31.972Z,21.23
2023-01-21T02:03:46.191Z,21.65
2023-01-21T02:04:59.439Z,19.92
2023-01-21T02:06:14.507Z,13.70
2023-01-21T02:07:28.927Z,19.55
2023-01-21T02:08:41.151Z,14.93
2023-01-21T02:09:53.336Z,27.58
2023-01-21T02:11:11.872Z,12.48
2023-01-21T02:12:23.619Z,28.25
2023-01-21T02:13:35.105Z,10.02
2023-01-21T02:14:47.195Z,14.68
2023-01-21T02:16:17.694Z,9.18
2023-01-21T02:17:39.376Z,15.30
2023-01-21T02:18:59.887Z,7.55
2023-01-21T02:20:11.364Z,8.43
2023-01-21T02:21:35.067Z,19.85
2023-01-21T02:22:49.663Z,20.58
2023-01-21T02:24:01.111Z,26.60
2023-01-21T02:25:21.945Z,11.15
2023-01-21T02:26:42.774Z,12.90
2023-01-21T02:28:23.263Z,5.03
2023-01-21T02:29:37.095Z,7.50
2023-01-21T02:30:48.595Z,5.15
2023-01-21T02:32:00.102Z,12.75
2023-01-21T02:33:17.284Z,10.85
2023-01-21T02:34:48.916Z,17.98
2023-01-21T02:36:06.492Z,14.40
2023-01-21T02:37:26.126Z,5.50
2023-01-21T02:38:52.555Z,12.18
2023-01-21T02:40:19.401Z,8.65
2023-01-21T02:41:38.777Z,16.58
2023-01-21T02:43:07.387Z,10.77
2023-01-21T02:44:27.783Z,17.45
2023-01-21T02:46:02.531Z,9.90
2023-01-21T02:47:13.991Z,10.88
2023-01-21T02:48:32.220Z,7.35
2023-01-21T02:50:03.966Z,9.93
2023-01-21T02:51:18.205Z,9.77
2023-01-21T02:52:30.081Z,20.80
2023-01-21T02:53:41.517Z,12.95
2023-01-21T02:54:55.876Z,11.50
2023-01-21T02:56:15.483Z,12.90
2023-01-21T02:57:39.875Z,10.02
2023-01-21T02:58:57.291Z,6.47
2023-01-21T03:00:31.826Z,5.03
2023-01-21T03:01:53.085Z,10.45
2023-01-21T03:03:15.772Z,5.78
2023-01-21T03:04:33.057Z,2.95
2023-01-21T03:06:02.595Z,9.45
2023-01-21T03:07:27.999Z,6.03
2023-01-21T03:08:48.528Z,7.38
2023-01-21T03:10:20.293Z,3.70
2023-01-21T03:11:31.987Z,5.57
2023-01-21T03:12:50.230Z,7.93
2023-01-21T03:14:49.411Z,5.15
2023-01-21T03:16:19.329Z,5.15
2023-01-21T03:17:31.878Z,5.60
2023-01-21T03:18:46.858Z,5.45
2023-01-21T03:20:17.007Z,6.13
2023-01-21T03:21:31.431Z,4.80
2023-01-21T03:22:44.270Z,8.80
2023-01-21T03:23:56.545Z,5.43
2023-01-21T03:25:09.176Z,9.13
2023-01-21T03:26:23.503Z,7.38
2023-01-21T03:27:38.456Z,8.73
2023-01-21T03:28:51.897Z,9.77
2023-01-21T03:30:10.411Z,11.43
2023-01-21T03:31:25.583Z,9.02
2023-01-21T03:32:39.278Z,7.88
2023-01-21T03:33:53.271Z,19.30
2023-01-21T03:35:06.076Z,28.42
2023-01-21T03:36:26.479Z,10.10
2023-01-21T03:37:41.305Z,15.38
2023-01-21T03:38:53.550Z,12.90
2023-01-21T03:40:05.030Z,20.45
2023-01-21T03:41:28.678Z,25.83
2023-01-21T03:42:40.475Z,16.05
2023-01-21T03:43:52.371Z,26.35
2023-01-21T03:45:04.067Z,14.40
2023-01-21T03:46:18.615Z,21.35
2023-01-21T03:47:34.877Z,14.48
2023-01-21T03:48:48.827Z,10.45
2023-01-21T03:50:06.667Z,30.33
2023-01-21T03:51:21.712Z,14.75
2023-01-21T03:52:33.428Z,25.83
2023-01-21T03:53:45.275Z,12.20
2023-01-21T03:54:56.758Z,8.85
2023-01-21T03:56:08.237Z,21.08
2023-01-21T03:57:19.992Z,16.95
2023-01-21T03:58:31.398Z,15.05
2023-01-21T03:59:43.021Z,18.58
2023-01-21T04:00:54.632Z,10.82
2023-01-21T04:02:06.129Z,10.43
2023-01-21T04:03:17.666Z,8.27
2023-01-21T04:04:29.091Z,12.27
2023-01-21T04:05:40.531Z,6.65
2023-01-21T04:06:51.935Z,17.10
2023-01-21T04:08:03.427Z,15.68
2023-01-21T04:09:15.065Z,19.48
2023-01-21T04:10:26.593Z,12.02
2023-01-21T04:11:38.086Z,10.60
2023-01-21T04:12:49.572Z,10.52
2023-01-21T04:14:01.067Z,7.72
2023-01-21T04:15:12.689Z,13.18
2023-01-21T04:16:24.454Z,17.40
2023-01-21T04:17:35.899Z,20.17
2023-01-21T04:18:47.899Z,12.27
2023-01-21T04:19:59.346Z,10.45
2023-01-21T04:21:10.860Z,5.68
2023-01-21T04:22:22.352Z,3.35
2023-01-21T04:23:33.868Z,6.55
2023-01-21T04:24:45.320Z,6.50
2023-01-21T04:25:56.759Z,7.05
2023-01-21T04:27:08.282Z,4.75
2023-01-21T04:28:19.809Z,7.07
2023-01-21T04:29:31.280Z,8.15
2023-01-21T04:30:42.823Z,1.52
2023-01-21T04:31:54.887Z,2.83
2023-01-21T04:33:06.422Z,3.08
2023-01-21T04:34:17.946Z,5.88
2023-01-21T04:35:31.789Z,4.43
2023-01-21T04:36:43.238Z,3.67
2023-01-21T04:37:57.035Z,2.67
2023-01-21T04:39:09.630Z,3.90
2023-01-21T04:40:21.130Z,3.42
2023-01-21T04:41:32.629Z,3.83
2023-01-21T04:42:44.177Z,2.05
2023-01-21T04:43:55.643Z,2.63
2023-01-21T04:45:07.637Z,1.83
2023-01-21T04:46:19.180Z,2.63
2023-01-21T04:47:30.703Z,1.63
2023-01-21T04:48:42.103Z,1.65
2023-01-21T04:49:53.667Z,1.30
2023-01-21T04:51:06.594Z,4.10
2023-01-21T04:52:18.121Z,3.72
2023-01-21T04:53:29.539Z,1.70
2023-01-21T04:54:41.045Z,11.75
2023-01-21T04:55:53.951Z,5.20
2023-01-21T04:57:05.982Z,19.55
2023-01-21T04:58:17.563Z,8.10
2023-01-21T04:59:29.034Z,4.55
2023-01-21T05:00:40.518Z,4.50
2023-01-21T05:01:51.984Z,4.47
2023-01-21T05:03:03.533Z,3.97
2023-01-21T05:04:15.164Z,7.50
2023-01-21T05:05:26.612Z,5.65
2023-01-21T05:06:38.043Z,4.43
2023-01-21T05:07:52.134Z,2.75
2023-01-21T05:09:03.712Z,2.78
2023-01-21T05:10:16.572Z,2.63
2023-01-21T05:11:28.197Z,9.25
2023-01-21T05:12:39.671Z,6.38
2023-01-21T05:13:51.110Z,5.80
2023-01-21T05:15:02.653Z,3.30
2023-01-21T05:16:14.671Z,3.42
2023-01-21T05:17:26.561Z,4.07
2023-01-21T05:18:40.948Z,5.45
2023-01-21T05:19:52.501Z,5.45
2023-01-21T05:21:04.543Z,4.53
2023-01-21T05:22:16.097Z,11.80
2023-01-21T05:23:27.568Z,16.38
2023-01-21T05:24:38.997Z,10.40
2023-01-21T05:25:50.541Z,5.95
2023-01-21T05:27:01.988Z,6.63
2023-01-21T05:28:13.433Z,6.38
2023-01-21T05:29:24.887Z,5.85
2023-01-21T05:30:38.535Z,4.97
2023-01-21T05:31:51.512Z,3.40
2023-01-21T05:33:02.988Z,4.45
2023-01-21T05:34:14.478Z,2.55
2023-01-21T05:35:28.753Z,4.10
2023-01-21T05:36:40.239Z,14.18
2023-01-21T05:37:51.891Z,18.42
2023-01-21T05:39:03.768Z,14.25
2023-01-21T05:40:16.457Z,13.50
2023-01-21T05:41:28.168Z,9.90
2023-01-21T05:42:39.613Z,28.85
2023-01-21T05:43:51.048Z,19.77
2023-01-21T05:45:02.583Z,23.92
2023-01-21T05:46:14.214Z,15.70
2023-01-21T05:47:25.702Z,5.60
2023-01-21T05:48:37.246Z,6.72
2023-01-21T05:49:48.806Z,4.93
2023-01-21T05:51:00.336Z,15.00
2023-01-21T05:52:11.777Z,8.57
2023-01-21T05:53:23.367Z,5.32
2023-01-21T05:54:34.772Z,179.60
2023-01-21T05:55:46.257Z,10.23
2023-01-21T05:56:57.698Z,8.07
2023-01-21T05:58:09.156Z,7.60
2023-01-21T05:59:20.599Z,17.05
2023-01-21T06:00:32.114Z,8.23
2023-01-21T06:01:44.672Z,8.88
2023-01-21T06:02:56.100Z,12.98
2023-01-21T06:04:07.592Z,10.68
2023-01-21T06:05:19.187Z,11.05
2023-01-21T06:06:30.686Z,3.67
2023-01-21T06:07:42.312Z,6.40
2023-01-21T06:08:53.780Z,35.53
2023-01-21T06:10:05.579Z,19.33
2023-01-21T06:11:17.072Z,34.67
2023-01-21T06:12:28.683Z,8.52
2023-01-21T06:13:40.201Z,4.47
2023-01-21T06:14:51.628Z,4.30
2023-01-21T06:16:03.230Z,9.15
2023-01-21T06:17:14.713Z,18.23
2023-01-21T06:18:26.878Z,7.22
2023-01-21T06:19:38.357Z,6.70
2023-01-21T06:20:50.114Z,8.98
2023-01-21T06:22:01.603Z,8.90
2023-01-21T06:23:13.445Z,5.85
2023-01-21T06:24:24.922Z,6.88
2023-01-21T06:25:36.409Z,8.10
2023-01-21T06:26:47.868Z,13.18
2023-01-21T06:27:59.558Z,12.50
2023-01-21T06:29:11.082Z,7.45
2023-01-21T06:30:23.165Z,10.93
2023-01-21T06:31:34.897Z,6.13
2023-01-21T06:32:46.395Z,6.22
2023-01-21T06:33:57.962Z,45.10
2023-01-21T06:35:09.516Z,25.08
2023-01-21T06:36:21.009Z,10.98
2023-01-21T06:37:32.916Z,15.43
2023-01-21T06:38:44.362Z,13.55
2023-01-21T06:39:55.818Z,20.58
2023-01-21T06:41:07.321Z,19.73
2023-01-21T06:42:18.797Z,14.07
2023-01-21T06:43:30.476Z,19.17
2023-01-21T06:44:42.000Z,21.48
2023-01-21T06:45:53.547Z,24.20
2023-01-21T06:47:05.249Z,28.40
2023-01-21T06:48:16.788Z,30.00
2023-01-21T06:49:28.241Z,27.27
2023-01-21T06:50:39.779Z,28.33
2023-01-21T06:51:51.943Z,25.38
2023-01-21T06:53:03.516Z,22.65
2023-01-21T06:54:14.944Z,23.17
2023-01-21T06:55:26.359Z,22.15
2023-01-21T06:56:38.303Z,20.50
2023-01-21T06:57:49.803Z,18.60
2023-01-21T06:59:01.482Z,23.77
2023-01-21T07:00:13.609Z,25.17
2023-01-21T07:01:25.160Z,30.08
2023-01-21T07:02:37.992Z,34.38
2023-01-21T07:03:49.467Z,19.63
2023-01-21T07:05:01.047Z,20.08
2023-01-21T07:06:12.571Z,23.60
2023-01-21T07:07:26.456Z,18.85
2023-01-21T07:08:38.031Z,16.65
2023-01-21T07:09:49.620Z,20.60
2023-01-21T07:11:01.476Z,20.67
2023-01-21T07:12:13.399Z,21.13
2023-01-21T07:13:24.912Z,21.88
2023-01-21T07:14:36.435Z,20.73
2023-01-21T07:15:48.043Z,14.00
2023-01-21T07:16:59.639Z,17.17
2023-01-21T07:18:11.159Z,22.73
2023-01-21T07:19:22.656Z,20.15
2023-01-21T07:20:34.471Z,24.60
2023-01-21T07:21:46.000Z,52.13
2023-01-21T07:22:57.691Z,32.03
2023-01-21T07:24:09.564Z,318.08
2023-01-21T07:25:21.056Z,338.83
2023-01-21T07:26:36.264Z,296.92
2023-01-21T07:27:47.843Z,189.15
2023-01-21T07:29:01.841Z,60.35
2023-01-21T07:30:18.073Z,108.88
2023-01-21T07:31:30.137Z,74.30
2023-01-21T07:32:42.809Z,37.45
2023-01-21T07:33:56.147Z,39.58
2023-01-21T07:35:07.743Z,44.60
2023-01-21T07:36:19.230Z,34.33
2023-01-21T07:37:30.648Z,40.53
2023-01-21T07:38:42.380Z,34.58
2023-01-21T07:39:55.961Z,40.00
2023-01-21T07:41:07.769Z,45.70
2023-01-21T07:42:19.319Z,37.83
2023-01-21T07:43:30.820Z,19.60
2023-01-21T07:44:42.380Z,29.08
2023-01-21T07:45:54.984Z,29.00
2023-01-21T07:47:08.860Z,42.05
2023-01-21T07:48:20.542Z,50.08
2023-01-21T07:49:32.086Z,38.15
2023-01-21T07:50:43.668Z,28.80
2023-01-21T07:51:57.986Z,35.40
2023-01-21T07:53:10.689Z,36.83
2023-01-21T07:54:23.813Z,29.08
2023-01-21T07:55:35.500Z,23.88
2023-01-21T07:56:46.960Z,40.80
2023-01-21T07:57:58.877Z,30.85
2023-01-21T07:59:10.800Z,32.05
2023-01-21T08:00:23.762Z,39.17
2023-01-21T08:01:35.324Z,33.13
2023-01-21T08:02:50.221Z,36.35
2023-01-21T08:04:01.968Z,25.90
2023-01-21T08:05:16.203Z,21.20
2023-01-21T08:06:28.027Z,18.98
2023-01-21T08:07:39.508Z,26.05
2023-01-21T08:08:51.247Z,23.48
2023-01-21T08:10:02.897Z,24.45
2023-01-21T08:11:14.351Z,18.13
2023-01-21T08:12:28.964Z,24.13
2023-01-21T08:13:40.738Z,10.93
2023-01-21T08:14:52.329Z,9.68
2023-01-21T08:16:04.761Z,7.40
2023-01-21T08:17:16.768Z,12.70
2023-01-21T08:18:28.488Z,12.23
2023-01-21T08:19:40.309Z,11.02
2023-01-21T08:20:58.507Z,11.23
2023-01-21T08:22:10.507Z,6.57
2023-01-21T08:23:22.829Z,9.05
2023-01-21T08:24:34.950Z,11.07
2023-01-21T08:25:49.464Z,7.45
2023-01-21T08:27:01.078Z,5.80
2023-01-21T08:28:12.731Z,3.95
2023-01-21T08:29:24.247Z,7.75
2023-01-21T08:30:36.190Z,8.82
2023-01-21T08:31:47.803Z,8.68
2023-01-21T08:32:59.401Z,12.45
2023-01-21T08:34:10.911Z,19.80
2023-01-21T08:35:22.580Z,21.58
2023-01-21T08:36:34.270Z,22.98
2023-01-21T08:37:46.210Z,28.98
2023-01-21T08:39:05.827Z,22.13
2023-01-21T08:40:17.367Z,21.65
2023-01-21T08:41:28.791Z,19.83
2023-01-21T08:42:40.399Z,13.50
2023-01-21T08:43:52.526Z,12.57
2023-01-21T08:45:04.681Z,13.18
2023-01-21T08:46:16.327Z,15.07
2023-01-21T08:47:28.101Z,15.18
2023-01-21T08:48:39.645Z,13.05
2023-01-21T08:49:51.112Z,9.15
2023-01-21T08:51:03.197Z,8.55
2023-01-21T08:52:17.170Z,10.52
2023-01-21T08:53:28.714Z,11.13
2023-01-21T08:54:41.456Z,10.52
2023-01-21T08:55:52.968Z,9.35
2023-01-21T08:57:04.539Z,9.65
2023-01-21T08:58:16.013Z,13.88
2023-01-21T08:59:28.928Z,18.80
2023-01-21T09:00:41.933Z,48.17
2023-01-21T09:01:53.455Z,33.45
2023-01-21T09:03:05.481Z,28.55
2023-01-21T09:04:17.057Z,24.10
2023-01-21T09:05:28.537Z,40.42
2023-01-21T09:06:40.025Z,44.45
2023-01-21T09:07:51.726Z,19.30
2023-01-21T09:09:03.551Z,13.48
2023-01-21T09:10:37.922Z,15.57
2023-01-21T09:11:52.106Z,18.52
2023-01-21T09:13:04.666Z,12.65
2023-01-21T09:14:16.088Z,17.70
2023-01-21T09:15:27.512Z,12.40
2023-01-21T09:16:39.225Z,22.27
2023-01-21T09:17:50.697Z,24.38
2023-01-21T09:19:03.797Z,27.60
2023-01-21T09:20:15.250Z,21.40
2023-01-21T09:21:27.588Z,20.95
2023-01-21T09:22:39.213Z,18.75
2023-01-21T09:23:50.627Z,14.73
2023-01-21T09:25:10.284Z,20.40
2023-01-21T09:26:22.544Z,23.15
2023-01-21T09:27:34.131Z,47.97
2023-01-21T09:28:49.719Z,23.38
2023-01-21T09:30:01.231Z,16.42
2023-01-21T09:31:14.012Z,48.30
2023-01-21T09:32:26.328Z,13.10
2023-01-21T09:33:39.174Z,13.20
2023-01-21T09:34:50.619Z,20.63
2023-01-21T09:36:03.016Z,14.80
2023-01-21T09:37:14.549Z,17.63
2023-01-21T09:38:26.073Z,14.00
2023-01-21T09:39:37.489Z,19.58
2023-01-21T09:40:49.305Z,10.55
2023-01-21T09:42:00.731Z,12.40
2023-01-21T09:43:14.931Z,12.45
2023-01-21T09:44:52.533Z,13.10
2023-01-21T09:46:05.509Z,11.82
2023-01-21T09:47:37.260Z,16.27
2023-01-21T09:48:49.570Z,20.08
2023-01-21T09:50:05.390Z,22.23
2023-01-21T09:51:26.084Z,23.00
2023-01-21T09:52:43.103Z,22.63
2023-01-21T09:53:57.104Z,17.92
2023-01-21T09:55:16.508Z,18.50
2023-01-21T09:56:39.760Z,18.30
2023-01-21T09:58:06.250Z,20.10
2023-01-21T09:59:36.394Z,19.02
2023-01-21T10:00:54.336Z,16.20
2023-01-21T10:02:15.682Z,17.38
2023-01-21T10:03:33.311Z,23.33
2023-01-21T10:04:49.062Z,23.17
2023-01-21T10:06:16.037Z,28.30
2023-01-21T10:07:33.021Z,31.90
2023-01-21T10:08:59.710Z,44.13
2023-01-21T10:10:19.976Z,40.55
2023-01-21T10:11:31.478Z,27.67
2023-01-21T10:12:42.895Z,21.45
2023-01-21T10:13:57.854Z,22.92
2023-01-21T10:15:31.792Z,31.92
2023-01-21T10:16:48.624Z,43.80
2023-01-21T10:18:18.225Z,22.05
2023-01-21T10:19:40.672Z,15.70
2023-01-21T10:21:10.593Z,15.70
2023-01-21T10:22:26.866Z,17.50
2023-01-21T10:23:42.729Z,10.88
2023-01-21T10:25:03.111Z,14.32
2023-01-21T10:26:15.383Z,12.27
2023-01-21T10:27:30.861Z,15.77
2023-01-21T10:28:47.310Z,17.08
2023-01-21T10:30:28.416Z,15.90
2023-01-21T10:31:44.127Z,14.23
2023-01-21T10:32:56.222Z,12.48
2023-01-21T10:34:29.422Z,14.05
2023-01-21T10:35:49.537Z,9.52
2023-01-21T10:37:03.116Z,9.50
2023-01-21T10:38:23.356Z,9.32
2023-01-21T10:39:39.389Z,11.32
2023-01-21T10:41:09.138Z,35.97
2023-01-21T10:42:32.535Z,51.20
2023-01-21T10:43:49.213Z,25.83
2023-01-21T10:45:05.866Z,52.10
2023-01-21T10:46:23.611Z,20.55
2023-01-21T10:47:43.492Z,21.00
2023-01-21T10:49:01.415Z,13.23
2023-01-21T10:50:18.851Z,10.48
2023-01-21T10:51:34.025Z,16.73
2023-01-21T10:52:52.295Z,22.83
2023-01-21T10:54:03.750Z,16.73
2023-01-21T10:55:36.889Z,22.63
2023-01-21T10:56:51.329Z,18.67
2023-01-21T10:58:04.714Z,17.63
2023-01-21T10:59:17.669Z,13.50
2023-01-21T11:00:33.694Z,14.55
2023-01-21T11:01:47.477Z,30.45
2023-01-21T11:03:01.693Z,41.53
2023-01-21T11:04:16.834Z,21.25
2023-01-21T11:05:29.764Z,17.55
2023-01-21T11:06:42.715Z,15.70
2023-01-21T11:07:54.263Z,13.40
2023-01-21T11:09:09.198Z,13.40
2023-01-21T11:10:23.056Z,12.40
2023-01-21T11:11:40.318Z,17.77
2023-01-21T11:12:53.402Z,23.05
2023-01-21T11:14:05.187Z,7.93
2023-01-21T11:15:18.901Z,11.75
2023-01-21T11:16:35.352Z,10.45
2023-01-21T11:17:48.545Z,13.88
2023-01-21T11:19:00.154Z,10.15
2023-01-21T11:20:44.334Z,6.40
2023-01-21T11:21:59.626Z,9.73
2023-01-21T11:23:25.044Z,11.88
2023-01-21T11:24:43.562Z,9.65
2023-01-21T11:26:06.827Z,9.32
2023-01-21T11:27:23.419Z,10.88
2023-01-21T11:28:34.901Z,15.55
2023-01-21T11:29:47.806Z,16.70
2023-01-21T11:31:13.618Z,17.58
2023-01-21T11:32:27.264Z,11.18
2023-01-21T11:33:39.350Z,14.88
2023-01-21T11:34:52.131Z,14.40
2023-01-21T11:36:29.673Z,13.02
2023-01-21T11:37:45.001Z,14.73
2023-01-21T11:39:04.903Z,19.67
2023-01-21T11:40:22.847Z,17.35
2023-01-21T11:41:34.973Z,18.65
2023-01-21T11:42:50.842Z,68.72
2023-01-21T11:44:10.731Z,37.60
2023-01-21T11:45:33.185Z,32.45
2023-01-21T11:46:44.788Z,20.77
2023-01-21T11:47:59.108Z,23.33
2023-01-21T11:49:10.553Z,17.45
2023-01-21T11:50:35.163Z,17.73
2023-01-21T11:51:47.500Z,20.58
2023-01-21T11:53:08.948Z,24.85
2023-01-21T11:54:24.209Z,18.08
2023-01-21T11:55:47.956Z,20.05
2023-01-21T11:57:03.660Z,18.50
2023-01-21T11:58:21.100Z,15.02
2023-01-21T11:59:45.919Z,20.02
2023-01-21T12:01:01.828Z,13.32
2023-01-21T12:02:13.291Z,17.33
2023-01-21T12:03:26.983Z,24.58
2023-01-21T12:04:43.617Z,25.20
2023-01-21T12:05:55.127Z,26.88
2023-01-21T12:07:06.702Z,25.05
2023-01-21T12:08:20.988Z,30.58
2023-01-21T12:09:32.491Z,21.35
2023-01-21T12:10:46.332Z,26.70
2023-01-21T12:12:06.944Z,30.75
2023-01-21T12:13:26.255Z,19.65
2023-01-21T12:14:47.283Z,22.13
2023-01-21T12:16:17.175Z,22.65
2023-01-21T12:17:40.623Z,19.45
2023-01-21T12:19:10.880Z,19.27
2023-01-21T12:20:22.466Z,19.05
2023-01-21T12:21:48.727Z,19.48
2023-01-21T12:23:02.989Z,18.92
2023-01-21T12:24:23.503Z,22.08
2023-01-21T12:25:47.206Z,36.47
2023-01-21T12:26:58.667Z,34.85
2023-01-21T12:28:31.341Z,32.92
2023-01-21T12:29:48.863Z,20.63
2023-01-21T12:31:12.030Z,22.52
2023-01-21T12:32:26.357Z,23.13
2023-01-21T12:33:50.533Z,17.00
2023-01-21T12:35:14.129Z,21.98
2023-01-21T12:36:30.011Z,23.23
2023-01-21T12:37:46.962Z,27.70
2023-01-21T12:39:04.591Z,23.98
2023-01-21T12:40:28.204Z,25.67
2023-01-21T12:41:41.962Z,27.58
2023-01-21T12:42:55.767Z,24.92
2023-01-21T12:44:25.739Z,21.05
2023-01-21T12:45:43.857Z,19.63
2023-01-21T12:46:59.356Z,21.73
2023-01-21T12:48:16.529Z,16.33
2023-01-21T12:49:50.085Z,22.67
2023-01-21T12:51:05.143Z,17.52
2023-01-21T12:52:20.262Z,15.73
2023-01-21T12:53:40.874Z,24.40
2023-01-21T12:54:58.829Z,27.35
2023-01-21T12:56:10.361Z,25.42
2023-01-21T12:57:30.051Z,25.55
2023-01-21T12:58:56.306Z,24.92
2023-01-21T13:00:21.320Z,25.08
2023-01-21T13:01:41.774Z,27.27
2023-01-21T13:02:59.069Z,29.27
2023-01-21T13:04:30.144Z,34.17
2023-01-21T13:05:52.707Z,21.70
2023-01-21T13:07:07.948Z,27.25
2023-01-21T13:08:21.329Z,31.10
2023-01-21T13:09:39.763Z,28.55
2023-01-21T13:10:54.835Z,28.67
2023-01-21T13:12:26.454Z,37.33
2023-01-21T13:13:58.212Z,36.63
2023-01-21T13:15:15.494Z,22.30
2023-01-21T13:16:28.750Z,20.85
2023-01-21T13:17:42.172Z,22.80
2023-01-21T13:18:54.452Z,30.38
2023-01-21T13:20:18.488Z,26.67
2023-01-21T13:21:32.955Z,25.42
2023-01-21T13:22:56.457Z,22.05
2023-01-21T13:24:21.146Z,27.35
2023-01-21T13:25:37.613Z,24.33
2023-01-21T13:26:52.551Z,29.20
2023-01-21T13:28:25.428Z,62.25
2023-01-21T13:29:39.989Z,53.03
2023-01-21T13:30:57.637Z,54.92
2023-01-21T13:32:09.437Z,43.10
2023-01-21T13:33:39.456Z,34.13
2023-01-21T13:35:09.796Z,30.30
2023-01-21T13:36:21.566Z,39.60
2023-01-21T13:37:45.994Z,45.83
2023-01-21T13:39:02.224Z,24.95
2023-01-21T13:40:28.478Z,20.65
2023-01-21T13:42:01.051Z,31.65
2023-01-21T13:43:30.821Z,22.73
2023-01-21T13:44:45.594Z,26.05
2023-01-21T13:46:06.306Z,20.30
2023-01-21T13:47:18.063Z,21.00
2023-01-21T13:48:49.632Z,16.17
2023-01-21T13:50:07.077Z,22.60
2023-01-21T13:51:34.475Z,22.75
2023-01-21T13:52:55.294Z,30.27
2023-01-21T13:54:11.927Z,30.95
2023-01-21T13:55:26.496Z,30.02
2023-01-21T13:56:54.631Z,31.30
2023-01-21T13:58:06.094Z,24.10
2023-01-21T13:59:44.539Z,24.98
2023-01-21T14:01:01.203Z,24.73
2023-01-21T14:02:13.148Z,28.77
2023-01-21T14:03:29.077Z,46.05
2023-01-21T14:04:48.207Z,39.97
2023-01-21T14:06:24.568Z,47.78
2023-01-21T14:08:07.765Z,71.40
2023-01-21T14:09:21.624Z,46.03
2023-01-21T14:10:37.828Z,39.75
2023-01-21T14:12:04.881Z,40.05
2023-01-21T14:13:31.476Z,47.88
2023-01-21T14:15:04.334Z,46.83
2023-01-21T14:16:18.738Z,43.70
2023-01-21T14:17:39.561Z,53.08
2023-01-21T14:19:09.693Z,71.80
2023-01-21T14:20:24.374Z,51.33
2023-01-21T14:21:45.812Z,35.08
2023-01-21T14:23:04.803Z,39.47
2023-01-21T14:24:16.522Z,32.55
2023-01-21T14:25:46.560Z,34.83
2023-01-21T14:27:03.953Z,19.10
2023-01-21T14:28:21.491Z,17.67
2023-01-21T14:29:34.927Z,23.73
2023-01-21T14:30:46.550Z,20.73
2023-01-21T14:32:04.560Z,23.70
2023-01-21T14:33:21.829Z,17.02
2023-01-21T14:34:40.795Z,16.25
2023-01-21T14:35:52.514Z,9.82
2023-01-21T14:37:09.891Z,7.85
2023-01-21T14:38:40.056Z,12.15
2023-01-21T14:40:00.898Z,9.10
2023-01-21T14:41:15.036Z,6.72
2023-01-21T14:42:44.828Z,7.38
2023-01-21T14:43:58.264Z,8.52
2023-01-21T14:45:10.203Z,5.70
2023-01-21T14:46:24.250Z,10.00
2023-01-21T14:47:35.747Z,14.68
2023-01-21T14:48:56.094Z,17.35
2023-01-21T14:50:10.009Z,15.80
2023-01-21T14:51:22.070Z,10.32
2023-01-21T14:52:36.641Z,13.00
2023-01-21T14:53:50.545Z,11.88
2023-01-21T14:55:02.143Z,11.10
2023-01-21T14:56:22.180Z,12.77
2023-01-21T14:57:37.812Z,12.07
2023-01-21T14:58:59.677Z,47.45
2023-01-21T15:00:14.264Z,43.30
2023-01-21T15:01:34.691Z,47.85
2023-01-21T15:02:59.545Z,43.08
2023-01-21T15:04:28.626Z,52.78
2023-01-21T15:05:41.315Z,54.85
2023-01-21T15:06:57.829Z,50.17
2023-01-21T15:08:14.860Z,48.20
2023-01-21T15:09:34.044Z,52.60
2023-01-21T15:10:50.243Z,43.35
2023-01-21T15:12:03.338Z,25.40
2023-01-21T15:13:20.950Z,28.08
2023-01-21T15:14:37.074Z,25.17
2023-01-21T15:16:06.558Z,22.23
2023-01-21T15:17:36.544Z,28.75
2023-01-21T15:19:06.534Z,20.58
2023-01-21T15:20:39.377Z,15.60
2023-01-21T15:22:00.319Z,8.95
2023-01-21T15:23:18.732Z,18.90
2023-01-21T15:24:30.718Z,21.80
2023-01-21T15:26:03.202Z,19.67
2023-01-21T15:27:20.576Z,12.02
2023-01-21T15:28:46.265Z,12.52
2023-01-21T15:29:58.505Z,8.75
2023-01-21T15:31:12.793Z,12.20
2023-01-21T15:32:27.790Z,11.90
2023-01-21T15:33:42.663Z,15.18
2023-01-21T15:34:58.168Z,13.27
2023-01-21T15:36:20.008Z,11.02
2023-01-21T15:37:36.111Z,13.20
2023-01-21T15:38:50.782Z,36.03
2023-01-21T15:40:09.999Z,44.45
2023-01-21T15:41:26.219Z,28.83
2023-01-21T15:42:40.007Z,35.13
2023-01-21T15:43:55.674Z,48.20
2023-01-21T15:45:16.553Z,34.60
2023-01-21T15:46:50.733Z,41.63
2023-01-21T15:48:10.270Z,31.10
2023-01-21T15:49:42.000Z,24.52
2023-01-21T15:51:06.622Z,17.58
2023-01-21T15:52:24.538Z,9.60
2023-01-21T15:53:48.617Z,12.63
2023-01-21T15:55:03.036Z,7.07
2023-01-21T15:56:37.881Z,11.50
2023-01-21T15:58:08.023Z,7.18
2023-01-21T15:59:19.907Z,6.35
2023-01-21T16:00:39.464Z,10.40
2023-01-21T16:02:09.777Z,8.40
2023-01-21T16:03:34.131Z,17.08
2023-01-21T16:04:54.401Z,14.68
2023-01-21T16:06:21.278Z,7.60
2023-01-21T16:07:51.510Z,14.35
2023-01-21T16:09:09.623Z,6.85
2023-01-21T16:10:31.528Z,9.00
2023-01-21T16:11:49.046Z,12.35
2023-01-21T16:13:00.511Z,15.70
2023-01-21T16:14:13.787Z,11.57
2023-01-21T16:15:40.283Z,12.80
2023-01-21T16:16:51.904Z,11.45
2023-01-21T16:18:09.193Z,7.90
2023-01-21T16:19:23.290Z,11.63
2023-01-21T16:20:35.182Z,13.10
2023-01-21T16:21:49.101Z,21.20